Time;durP1;ratioP1;P1;durP2;ratioP2;P2;SDS_P1;SDS_P2;PMS_P1;PMS_P2;Temp;Humidity;BMP_temperature;BMP_pressure;BME280_temperature;BME280_humidity;BME280_pressure;Samples;Min_cycle;Max_cycle;Signal;HPM_P1;HPM_P2
2023/03/04 00:00:16;;;;;;;;;;;;;;;-0.13;77.39;101570.16;4961064;28;20446;-69
2023/03/04 00:03:27;;;;;;;;;;;;;;;-0.21;76.97;101579.53;4946364;29;19973;-68
2023/03/04 00:06:31;;;;;;;;;;;;;;;-0.32;77.36;101574.28;4959289;28;20042;-68
2023/03/04 00:09:34;;;;;;;;;;;;;;;-0.34;77.74;101581.97;4961710;28;19956;-69
2023/03/04 00:12:37;;;;;;;;;;;;;;;-0.37;77.69;101579.38;4940046;28;19925;-69
2023/03/04 00:15:40;;;;;;;;;;;;;;;-0.36;77.78;101578.53;4956925;28;19933;-69
2023/03/04 00:18:44;;;;;;;;;;;;;;;-0.37;78.27;101575.97;4964985;28;20009;-69
2023/03/04 00:21:50;;;;;;;;;;;;;;;-0.32;77.91;101580.28;4960136;28;19925;-69
2023/03/04 00:24:53;;;;;;;;;;;;;;;-0.21;77.46;101580.38;4960625;28;20049;-69
2023/03/04 00:27:57;;;;;;;;;;;;;;;-0.20;77.32;101573.53;4962898;28;19944;-68
2023/03/04 00:31:00;;;;;;;;;;;;;;;-0.21;78.00;101576.97;4961626;28;20389;-69
2023/03/04 00:34:04;;;;;;;;;;;;;;;-0.17;77.85;101576.13;4957760;28;19937;-69
2023/03/04 00:37:07;;;;;;;;;;;;;;;-0.24;77.83;101565.78;4947798;28;19976;-69
2023/03/04 00:40:10;;;;;;;;;;;;;;;-0.20;78.05;101573.53;4959792;28;20342;-69
2023/03/04 00:43:14;;;;;;;;;;;;;;;-0.18;77.98;101571.84;4960523;28;19925;-69
2023/03/04 00:46:17;;;;;;;;;;;;;;;-0.16;78.23;101565.88;4960766;28;19957;-69
2023/03/04 00:49:20;;;;;;;;;;;;;;;-0.16;78.37;101562.41;4961283;28;19926;-69
2023/03/04 00:52:23;;;;;;;;;;;;;;;-0.13;78.40;101565.00;4962087;28;19926;-69
2023/03/04 00:55:27;;;;;;;;;;;;;;;-0.10;78.39;101558.19;4959233;28;19933;-69
2023/03/04 00:58:30;;;;;;;;;;;;;;;-0.07;77.93;101559.94;4956238;28;19973;-69
2023/03/04 01:01:33;;;;;;;;;;;;;;;-0.13;78.33;101563.31;4955297;28;20383;-69
2023/03/04 01:04:36;;;;;;;;;;;;;;;-0.10;78.75;101554.75;4959055;28;19925;-69
2023/03/04 01:07:39;;;;;;;;;;;;;;;-0.14;78.85;101553.03;4956658;28;19935;-68
2023/03/04 01:10:43;;;;;;;;;;;;;;;-0.14;79.09;101546.16;4961480;28;19926;-69
2023/03/04 01:13:45;;;;;;;;;;;;;;;-0.11;78.88;101542.75;4959168;28;20306;-68
2023/03/04 01:16:49;;;;;;;;;;;;;;;-0.07;78.98;101534.22;4959242;28;19925;-68
2023/03/04 01:19:52;;;;;;;;;;;;;;;-0.04;79.19;101534.25;4959630;28;19972;-69
2023/03/04 01:22:56;;;;;;;;;;;;;;;0.03;78.95;101536.00;4960139;28;19925;-69
2023/03/04 01:25:59;;;;;;;;;;;;;;;0.09;78.94;101528.31;4947810;28;19974;-69
2023/03/04 01:29:02;;;;;;;;;;;;;;;0.03;79.37;101520.56;4961135;28;19926;-69
2023/03/04 01:32:05;;;;;;;;;;;;;;;0.13;79.10;101522.38;4947355;28;19977;-68
2023/03/04 01:35:08;;;;;;;;;;;;;;;0.17;78.91;101516.41;4947747;28;19931;-69
2023/03/04 01:38:12;;;;;;;;;;;;;;;0.14;79.23;101513.81;4949846;28;19950;-69
2023/03/04 01:41:16;;;;;;;;;;;;;;;0.20;79.31;101511.28;4951868;28;19973;-68
2023/03/04 01:44:19;;;;;;;;;;;;;;;0.25;78.99;101507.84;4964197;28;19925;-69
2023/03/04 01:47:26;;;;;;;;;;;;;;;0.26;79.15;101501.88;4965427;28;19925;-69
2023/03/04 01:50:31;;;;;;;;;;;;;;;0.21;79.18;101494.97;4963005;28;20313;-67
2023/03/04 01:53:35;;;;;;;;;;;;;;;0.23;79.20;101493.28;4948635;28;19973;-67
2023/03/04 01:56:38;;;;;;;;;;;;;;;0.19;79.43;101490.66;4963660;28;19968;-67
2023/03/04 01:59:42;;;;;;;;;;;;;;;0.23;79.43;101488.13;4947255;28;19925;-66
2023/03/04 02:02:45;;;;;;;;;;;;;;;0.23;79.56;101488.13;4967164;28;19929;-66
2023/03/04 02:05:49;;;;;;;;;;;;;;;0.25;79.75;101479.56;4944911;28;19926;-67
2023/03/04 02:08:53;;;;;;;;;;;;;;;0.29;79.48;101482.19;4962825;28;20433;-66
2023/03/04 02:11:57;;;;;;;;;;;;;;;0.27;79.86;101473.56;4949599;28;19925;-67
2023/03/04 02:15:02;;;;;;;;;;;;;;;0.32;79.78;101465.88;4963797;28;19937;-67
2023/03/04 02:18:17;;;;;;;;;;;;;;;0.32;79.95;101471.03;4961638;28;19951;-67
2023/03/04 02:21:24;;;;;;;;;;;;;;;0.34;80.09;101469.31;4952348;28;20327;-67
2023/03/04 02:24:34;;;;;;;;;;;;;;;0.34;79.89;101467.59;4950128;28;19925;-67
2023/03/04 02:27:38;;;;;;;;;;;;;;;0.33;80.26;101465.91;4960890;28;20433;-67
2023/03/04 02:30:42;;;;;;;;;;;;;;;0.44;80.08;101466.78;4963893;28;20291;-67
2023/03/04 02:33:46;;;;;;;;;;;;;;;0.42;79.82;101471.09;4952750;28;19937;-68
2023/03/04 02:36:50;;;;;;;;;;;;;;;0.39;80.14;101465.94;4961695;28;19966;-68
2023/03/04 02:39:54;;;;;;;;;;;;;;;0.37;80.05;101459.06;4962267;28;19925;-68
2023/03/04 02:42:58;;;;;;;;;;;;;;;0.36;80.33;101458.19;4944769;28;20394;-68
2023/03/04 02:46:02;;;;;;;;;;;;;;;0.41;80.51;101455.63;4958190;28;20501;-68
2023/03/04 02:53:29;;;;;;;;;;;;;;;0.49;80.12;101453.09;4961428;28;20073;-67
2023/03/04 02:56:32;;;;;;;;;;;;;;;0.53;80.22;101445.38;4943610;28;19929;-68
2023/03/04 02:59:37;;;;;;;;;;;;;;;0.53;80.26;101455.69;4943987;28;19925;-68
2023/03/04 03:02:40;;;;;;;;;;;;;;;0.54;80.27;101457.41;4938695;28;19954;-67
2023/03/04 03:05:44;;;;;;;;;;;;;;;0.56;80.07;101455.69;4963513;28;20034;-68
2023/03/04 03:08:47;;;;;;;;;;;;;;;0.61;80.34;101454.00;4962141;28;19949;-68
2023/03/04 03:11:51;;;;;;;;;;;;;;;0.60;80.31;101454.84;4963740;28;19929;-68
2023/03/04 03:19:06;;;;;;;;;;;;;;;0.65;80.36;101450.59;4975989;28;19925;-68
2023/03/04 03:22:10;;;;;;;;;;;;;;;0.62;80.46;101445.44;4963839;28;20416;-68
2023/03/04 03:25:14;;;;;;;;;;;;;;;0.62;80.61;101445.44;4973703;28;20266;-68
2023/03/04 03:28:17;;;;;;;;;;;;;;;0.65;80.68;101440.28;4972019;28;19988;-68
2023/03/04 03:31:20;;;;;;;;;;;;;;;0.67;80.51;101438.59;4974939;28;19974;-68
2023/03/04 03:34:23;;;;;;;;;;;;;;;0.69;80.48;101438.59;4951799;28;19968;-68
2023/03/04 03:37:27;;;;;;;;;;;;;;;0.71;80.80;101436.03;4974134;28;19924;-68
2023/03/04 03:40:29;;;;;;;;;;;;;;;0.71;80.88;101430.88;4975086;28;19976;-68
2023/03/04 03:43:32;;;;;;;;;;;;;;;0.73;80.73;101426.56;4973851;28;19925;-68
2023/03/04 03:46:36;;;;;;;;;;;;;;;0.73;80.99;101431.72;4968925;28;20024;-68
2023/03/04 03:49:39;;;;;;;;;;;;;;;0.74;81.11;101423.16;4973224;28;19929;-68
2023/03/04 03:52:42;;;;;;;;;;;;;;;0.74;81.26;101428.31;4962023;28;19925;-68
2023/03/04 03:59:38;;;;;;;;;;;;;;;0.78;80.99;101430.03;4973951;28;19950;-68
2023/03/04 04:02:42;;;;;;;;;;;;;;;0.80;81.22;101428.31;4974288;28;20291;-68
2023/03/04 04:05:44;;;;;;;;;;;;;;;0.75;81.03;101420.59;4974558;28;20321;-68
2023/03/04 04:08:47;;;;;;;;;;;;;;;0.79;81.18;101424.88;4974528;28;19941;-68
2023/03/04 04:11:50;;;;;;;;;;;;;;;0.83;81.18;101426.63;4974672;28;19929;-68
2023/03/04 04:14:53;;;;;;;;;;;;;;;0.84;81.17;101424.91;4974570;28;19982;-67
2023/03/04 04:17:56;;;;;;;;;;;;;;;0.85;81.43;101424.03;4974823;28;20013;-67
2023/03/04 04:20:59;;;;;;;;;;;;;;;0.84;81.41;101419.75;4975088;28;20004;-68
2023/03/04 04:24:02;;;;;;;;;;;;;;;0.81;81.33;101423.19;4974950;28;19941;-67
2023/03/04 04:27:06;;;;;;;;;;;;;;;0.84;81.44;101409.44;4974794;28;19942;-67
2023/03/04 04:30:09;;;;;;;;;;;;;;;0.86;81.48;101415.44;4974587;28;19925;-67
2023/03/04 04:33:12;;;;;;;;;;;;;;;0.83;81.51;101408.59;4974808;28;19925;-68
2023/03/04 04:36:15;;;;;;;;;;;;;;;0.86;81.87;101407.72;4974339;28;19925;-67
2023/03/04 04:39:18;;;;;;;;;;;;;;;0.88;81.59;101411.16;4974226;28;19976;-68
2023/03/04 04:42:21;;;;;;;;;;;;;;;0.87;81.75;101412.03;4974325;28;20400;-68
2023/03/04 04:45:25;;;;;;;;;;;;;;;0.87;81.51;101414.59;4973433;28;19928;-68
2023/03/04 04:48:28;;;;;;;;;;;;;;;0.89;81.42;101413.75;4974494;28;19972;-68
2023/03/04 04:51:31;;;;;;;;;;;;;;;0.93;81.46;101406.91;4974110;28;20301;-68
2023/03/04 04:54:34;;;;;;;;;;;;;;;0.97;81.72;101400.88;4973833;28;19929;-68
2023/03/04 04:57:37;;;;;;;;;;;;;;;0.97;81.40;101400.03;4973923;28;19980;-68
2023/03/04 05:00:40;;;;;;;;;;;;;;;0.97;81.96;101406.03;4973732;28;19924;-68
2023/03/04 05:03:43;;;;;;;;;;;;;;;0.94;81.70;101406.03;4974404;28;19964;-67
2023/03/04 05:06:46;;;;;;;;;;;;;;;0.94;81.84;101411.19;4974139;28;19976;-67
2023/03/04 05:09:49;;;;;;;;;;;;;;;0.91;81.99;101395.72;4974034;28;20028;-67
2023/03/04 05:12:51;;;;;;;;;;;;;;;0.92;81.84;101406.00;4974300;28;20431;-67
2023/03/04 05:15:55;;;;;;;;;;;;;;;0.93;82.31;101401.75;4973537;28;20478;-68
2023/03/04 05:18:58;;;;;;;;;;;;;;;0.96;81.87;101399.19;4974329;28;19972;-67
2023/03/04 05:22:01;;;;;;;;;;;;;;;0.94;82.08;101403.47;4973908;28;19926;-67
2023/03/04 05:25:05;;;;;;;;;;;;;;;0.91;82.13;101403.44;4973903;28;19929;-68
2023/03/04 05:28:11;;;;;;;;;;;;;;;0.97;82.20;101400.88;4972089;28;19936;-68
2023/03/04 05:31:15;;;;;;;;;;;;;;;0.95;82.37;101397.44;4972844;28;19988;-68
2023/03/04 05:34:18;;;;;;;;;;;;;;;0.98;82.26;101402.59;4973647;28;20409;-68
2023/03/04 05:37:21;;;;;;;;;;;;;;;1.01;82.36;101404.31;4961727;28;19925;-68
2023/03/04 05:40:24;;;;;;;;;;;;;;;1.07;82.08;101397.44;4973417;28;19945;-68
2023/03/04 05:43:27;;;;;;;;;;;;;;;1.12;81.83;101402.63;4973514;28;19973;-68
2023/03/04 05:46:31;;;;;;;;;;;;;;;1.12;81.71;101406.06;4973218;28;19976;-68
2023/03/04 05:49:33;;;;;;;;;;;;;;;1.15;82.23;101403.47;4973720;28;19972;-68
2023/03/04 05:52:37;;;;;;;;;;;;;;;1.16;81.99;101412.06;4973731;28;19925;-68
2023/03/04 05:55:46;;;;;;;;;;;;;;;1.17;82.17;101393.16;4972727;28;19929;-68
2023/03/04 05:58:49;;;;;;;;;;;;;;;1.15;82.20;101408.63;4973007;28;19976;-68
2023/03/04 06:01:51;;;;;;;;;;;;;;;1.14;82.44;101408.63;4973153;28;19957;-68
2023/03/04 06:04:55;;;;;;;;;;;;;;;1.14;82.42;101414.63;4973069;28;19925;-68
2023/03/04 06:07:58;;;;;;;;;;;;;;;1.15;82.51;101421.50;4973421;28;19941;-68
2023/03/04 06:11:03;;;;;;;;;;;;;;;1.17;82.58;101414.63;4973354;28;19946;-68
2023/03/04 06:14:06;;;;;;;;;;;;;;;1.23;82.37;101421.50;4973257;28;19985;-68
2023/03/04 06:17:09;;;;;;;;;;;;;;;1.24;82.36;101430.94;4972956;28;19924;-67
2023/03/04 06:20:12;;;;;;;;;;;;;;;1.23;82.36;101428.38;4972834;28;20342;-67
2023/03/04 06:23:16;;;;;;;;;;;;;;;1.25;82.57;101430.09;4972713;28;20401;-67
2023/03/04 06:26:19;;;;;;;;;;;;;;;1.26;82.63;101428.38;4973384;28;19965;-68
2023/03/04 06:29:22;;;;;;;;;;;;;;;1.30;82.40;101430.09;4976607;28;19965;-67
2023/03/04 06:32:27;;;;;;;;;;;;;;;1.32;82.32;101430.97;4959251;28;19926;-67
2023/03/04 06:35:30;;;;;;;;;;;;;;;1.31;82.55;101427.53;4976478;28;20018;-68
2023/03/04 06:38:34;;;;;;;;;;;;;;;1.35;82.53;101438.69;4976617;28;20017;-68
2023/03/04 06:41:38;;;;;;;;;;;;;;;1.34;82.73;101442.13;4976816;28;19925;-68
2023/03/04 06:44:41;;;;;;;;;;;;;;;1.32;83.30;101441.28;4972638;28;19974;-67
2023/03/04 06:47:46;;;;;;;;;;;;;;;1.36;82.56;101445.56;4976824;28;19945;-67
2023/03/04 06:50:50;;;;;;;;;;;;;;;1.25;83.39;101447.28;4976214;28;20011;-67
2023/03/04 06:53:52;;;;;;;;;;;;;;;1.43;82.66;101447.28;4964309;28;20556;-67
2023/03/04 06:56:55;;;;;;;;;;;;;;;1.36;82.88;101442.97;4975524;28;19989;-67
2023/03/04 06:59:58;;;;;;;;;;;;;;;1.46;82.50;101442.13;4975933;28;20011;-68
2023/03/04 07:03:02;;;;;;;;;;;;;;;1.11;83.50;101452.41;4975774;28;20289;-68
2023/03/04 07:06:05;;;;;;;;;;;;;;;1.08;84.47;101447.25;4976144;28;19929;-68
2023/03/04 07:09:08;;;;;;;;;;;;;;;1.41;83.15;101451.59;4975536;28;19929;-67
2023/03/04 07:12:11;;;;;;;;;;;;;;;1.56;82.38;101461.91;4976052;28;19993;-68
2023/03/04 07:15:15;;;;;;;;;;;;;;;1.63;82.29;101466.19;4975669;28;19929;-67
2023/03/04 07:18:18;;;;;;;;;;;;;;;1.66;82.07;101465.34;4975999;28;20345;-69
2023/03/04 07:21:22;;;;;;;;;;;;;;;1.61;82.78;101465.31;4975754;28;19924;-67
2023/03/04 07:24:24;;;;;;;;;;;;;;;1.67;82.78;101468.78;4976029;28;19933;-68
2023/03/04 07:27:28;;;;;;;;;;;;;;;1.68;82.92;101470.47;4975888;28;19960;-70
2023/03/04 07:30:31;;;;;;;;;;;;;;;1.71;82.59;101465.31;4975842;28;19966;-70
2023/03/04 07:33:34;;;;;;;;;;;;;;;1.76;82.29;101476.50;4970265;28;20310;-70
2023/03/04 07:36:37;;;;;;;;;;;;;;;1.80;82.04;101473.91;4970643;28;20413;-69
2023/03/04 07:39:41;;;;;;;;;;;;;;;1.81;82.39;101469.59;4975339;28;19925;-70
2023/03/04 07:42:48;;;;;;;;;;;;;;;1.81;82.40;101480.78;4974412;28;19924;-70
2023/03/04 07:45:56;;;;;;;;;;;;;;;1.91;81.56;101473.88;4962677;28;19980;-69
2023/03/04 07:49:00;;;;;;;;;;;;;;;1.85;81.75;101473.88;4975253;28;19925;-69
2023/03/04 07:52:05;;;;;;;;;;;;;;;1.86;81.84;101479.06;4975329;28;20020;-69
2023/03/04 07:55:11;;;;;;;;;;;;;;;2.01;81.68;101473.03;4974880;28;19933;-69
2023/03/04 07:58:18;;;;;;;;;;;;;;;2.05;81.65;101474.72;4975330;28;20146;-69
2023/03/04 08:01:32;;;;;;;;;;;;;;;2.09;81.63;101473.84;4974929;28;19925;-69
2023/03/04 08:04:38;;;;;;;;;;;;;;;2.08;81.34;101479.88;4962953;28;19990;-70
2023/03/04 08:07:44;;;;;;;;;;;;;;;2.08;81.41;101481.63;4974859;28;19933;-70
2023/03/04 08:10:47;;;;;;;;;;;;;;;1.77;82.96;101480.78;4975130;28;19925;-70
2023/03/04 08:13:52;;;;;;;;;;;;;;;2.01;81.74;101483.34;4974597;28;19933;-70
2023/03/04 08:16:56;;;;;;;;;;;;;;;2.18;81.22;101485.03;4974725;28;19925;-70
2023/03/04 08:19:59;;;;;;;;;;;;;;;2.28;81.00;101484.13;4974140;28;20374;-70
2023/03/04 08:23:02;;;;;;;;;;;;;;;2.07;81.26;101485.91;4973974;28;19956;-70
2023/03/04 08:26:21;;;;;;;;;;;;;;;2.31;80.80;101484.97;4973738;28;19929;-71
2023/03/04 08:29:24;;;;;;;;;;;;;;;2.17;81.47;101489.34;4974866;28;20037;-68
2023/03/04 08:32:27;;;;;;;;;;;;;;;2.38;80.55;101480.66;4974525;28;19973;-69
2023/03/04 08:35:30;;;;;;;;;;;;;;;2.35;80.07;101477.22;4974129;28;20520;-68
2023/03/04 08:38:33;;;;;;;;;;;;;;;2.38;80.14;101482.38;4974483;28;19945;-69
2023/03/04 08:41:38;;;;;;;;;;;;;;;2.14;81.40;101483.28;4973540;28;21289;-69
2023/03/04 08:44:42;;;;;;;;;;;;;;;2.19;81.98;101485.00;4974141;28;19945;-70
2023/03/04 08:47:45;;;;;;;;;;;;;;;2.19;81.53;101482.44;4973895;28;19940;-70
2023/03/04 08:50:48;;;;;;;;;;;;;;;2.26;81.75;101483.28;4973737;28;19924;-69
2023/03/04 08:53:51;;;;;;;;;;;;;;;2.31;81.10;101486.72;4973352;28;19933;-70
2023/03/04 08:56:54;;;;;;;;;;;;;;;2.33;81.49;101485.00;4974027;28;20425;-69
2023/03/04 08:59:57;;;;;;;;;;;;;;;2.54;80.36;101486.63;4973892;28;19925;-70
2023/03/04 09:03:02;;;;;;;;;;;;;;;2.66;79.80;101488.31;4974185;28;20334;-70
2023/03/04 09:06:32;;;;;;;;;;;;;;;2.48;80.28;101486.66;4962306;28;19981;-70
2023/03/04 09:09:35;;;;;;;;;;;;;;;2.52;80.29;101486.66;4974099;28;19941;-70
2023/03/04 09:12:40;;;;;;;;;;;;;;;2.67;80.17;101492.59;4973901;28;19973;-69
2023/03/04 09:15:44;;;;;;;;;;;;;;;2.70;79.83;101479.69;4973848;28;20021;-68
2023/03/04 09:18:50;;;;;;;;;;;;;;;2.93;79.49;101485.56;4972987;28;20009;-71
2023/03/04 09:21:55;;;;;;;;;;;;;;;2.88;79.97;101481.31;4962081;28;19969;-70
2023/03/04 09:24:58;;;;;;;;;;;;;;;2.84;80.54;101477.91;4973224;28;19925;-69
2023/03/04 09:28:01;;;;;;;;;;;;;;;2.94;79.88;101473.53;4974022;28;20290;-69
2023/03/04 09:31:13;;;;;;;;;;;;;;;2.86;79.40;101481.31;4961979;28;20000;-69
2023/03/04 09:34:16;;;;;;;;;;;;;;;2.90;79.63;101480.44;4973900;28;20024;-69
2023/03/04 09:37:19;;;;;;;;;;;;;;;3.15;79.29;101473.38;4973928;28;19976;-71
2023/03/04 09:40:25;;;;;;;;;;;;;;;3.02;79.14;101482.09;4973782;28;19957;-69
2023/03/04 09:43:30;;;;;;;;;;;;;;;3.22;78.76;101479.38;4968266;28;20430;-68
2023/03/04 09:46:37;;;;;;;;;;;;;;;3.29;78.17;101481.06;4964247;28;19949;-68
2023/03/04 09:49:42;;;;;;;;;;;;;;;3.35;78.51;101474.97;4958792;28;19941;-68
2023/03/04 09:53:00;;;;;;;;;;;;;;;3.44;77.71;101480.09;4959519;28;19925;-66
2023/03/04 09:56:04;;;;;;;;;;;;;;;3.58;76.98;101470.50;4946860;28;19929;-67
2023/03/04 10:03:05;;;;;;;;;;;;;;;3.76;76.94;101469.47;4965080;28;20287;-69
2023/03/04 10:06:12;;;;;;;;;;;;;;;3.83;76.34;101473.75;4964028;28;19973;-69
2023/03/04 10:09:18;;;;;;;;;;;;;;;3.85;76.31;101471.13;4964667;28;19925;-69
2023/03/04 10:12:24;;;;;;;;;;;;;;;3.89;77.01;101467.63;4962517;28;19933;-69
2023/03/04 10:15:38;;;;;;;;;;;;;;;3.88;76.41;101461.59;4963164;28;19978;-69
2023/03/04 10:18:44;;;;;;;;;;;;;;;4.00;75.66;101460.63;4962142;28;20005;-70
2023/03/04 10:21:49;;;;;;;;;;;;;;;4.06;75.65;101450.22;4963120;28;19925;-69
2023/03/04 10:24:55;;;;;;;;;;;;;;;4.12;73.74;101444.13;4962346;28;20346;-69
2023/03/04 10:28:15;;;;;;;;;;;;;;;4.20;73.91;101445.72;4944861;28;19930;-69
2023/03/04 10:31:21;;;;;;;;;;;;;;;4.30;73.39;101446.47;4963575;28;19926;-69
2023/03/04 10:34:25;;;;;;;;;;;;;;;4.36;73.09;101446.41;4961994;28;19973;-69
2023/03/04 10:41:29;;;;;;;;;;;;;;;4.09;71.69;101447.59;4969108;28;20038;-70
2023/03/04 10:44:38;;;;;;;;;;;;;;;4.19;71.53;101448.34;4971974;28;19937;-69
2023/03/04 10:47:50;;;;;;;;;;;;;;;4.24;70.78;101441.38;4959992;28;19929;-69
2023/03/04 10:51:09;;;;;;;;;;;;;;;4.30;71.41;101436.13;4954005;28;19934;-69
2023/03/04 10:54:15;;;;;;;;;;;;;;;4.38;70.68;101434.31;4956081;28;19933;-70
2023/03/04 10:57:32;;;;;;;;;;;;;;;4.47;70.62;101445.44;4965580;28;19925;-70
2023/03/04 11:00:36;;;;;;;;;;;;;;;4.58;70.09;101440.97;4968513;28;19925;-70
2023/03/04 11:03:46;;;;;;;;;;;;;;;4.49;69.78;101433.31;4967553;28;19979;-69
2023/03/04 11:06:50;;;;;;;;;;;;;;;4.24;70.44;101433.59;4962832;28;19961;-70
2023/03/04 11:09:53;;;;;;;;;;;;;;;4.23;70.52;101434.50;4965334;28;19925;-70
2023/03/04 11:13:15;;;;;;;;;;;;;;;4.45;70.04;101434.25;4957592;28;20481;-69
2023/03/04 11:16:23;;;;;;;;;;;;;;;4.42;69.37;101433.41;4962623;28;19929;-69
2023/03/04 11:19:34;;;;;;;;;;;;;;;4.56;69.84;101428.06;4962848;28;20282;-69
2023/03/04 11:22:38;;;;;;;;;;;;;;;4.51;69.09;101421.22;4966456;28;20108;-69
2023/03/04 11:25:43;;;;;;;;;;;;;;;4.66;68.63;101418.44;4961920;28;19977;-69
2023/03/04 11:28:58;;;;;;;;;;;;;;;4.82;68.44;101408.72;4962818;28;19988;-67
2023/03/04 11:32:12;;;;;;;;;;;;;;;4.80;66.95;101402.69;4961871;28;19941;-68
2023/03/04 11:39:23;;;;;;;;;;;;;;;4.94;66.81;101392.97;4946237;28;20054;-69
2023/03/04 11:42:32;;;;;;;;;;;;;;;5.14;66.72;101392.69;4959578;28;20002;-69
2023/03/04 11:45:41;;;;;;;;;;;;;;;5.24;66.40;101385.59;4963383;28;19949;-70
2023/03/04 11:48:57;;;;;;;;;;;;;;;5.24;66.75;101385.59;4966021;28;19961;-71
2023/03/04 11:52:11;;;;;;;;;;;;;;;5.12;66.46;101384.06;4960571;28;20301;-68
2023/03/04 11:55:14;;;;;;;;;;;;;;;5.33;67.25;101377.69;4962395;28;19946;-71
2023/03/04 11:58:23;;;;;;;;;;;;;;;5.22;66.08;101374.41;4963391;28;20001;-74
2023/03/04 12:01:32;;;;;;;;;;;;;;;5.13;66.80;101370.19;4961643;28;20043;-72
2023/03/04 12:04:37;;;;;;;;;;;;;;;5.03;67.74;101368.66;4965697;28;19926;-72
2023/03/04 12:07:52;;;;;;;;;;;;;;;4.92;67.38;101360.19;4960396;28;19929;-74
2023/03/04 12:11:14;;;;;;;;;;;;;;;5.09;67.60;101358.19;4964917;28;19928;-70
2023/03/04 12:14:36;;;;;;;;;;;;;;;5.09;67.81;101363.38;4962488;28;20058;-71
2023/03/04 12:17:40;;;;;;;;;;;;;;;5.18;67.54;101357.19;4960155;28;19968;-72
2023/03/04 12:21:01;;;;;;;;;;;;;;;5.21;67.60;101357.97;4960394;28;20012;-71
2023/03/04 12:24:23;;;;;;;;;;;;;;;5.26;67.85;101345.78;4965318;28;20393;-72
2023/03/04 12:27:29;;;;;;;;;;;;;;;5.29;69.16;101345.72;4967382;28;19941;-72
2023/03/04 12:30:47;;;;;;;;;;;;;;;5.07;68.35;101334.88;4957445;28;19974;-71
2023/03/04 12:34:10;;;;;;;;;;;;;;;5.42;67.86;101335.13;4960242;28;19928;-72
2023/03/04 12:37:20;;;;;;;;;;;;;;;5.19;68.04;101333.81;4961857;28;19929;-75
2023/03/04 12:40:46;;;;;;;;;;;;;;;5.39;68.44;101336.03;4960752;28;19969;-70
2023/03/04 12:43:53;;;;;;;;;;;;;;;5.42;67.66;101330.81;4960304;28;19972;-70
2023/03/04 12:47:15;;;;;;;;;;;;;;;5.34;68.59;101320.59;4958287;28;20402;-71
2023/03/04 12:50:37;;;;;;;;;;;;;;;5.36;68.82;101316.22;4961668;28;20562;-69
2023/03/04 12:53:51;;;;;;;;;;;;;;;5.31;69.30;101317.19;4962374;28;20096;-71
2023/03/04 12:57:05;;;;;;;;;;;;;;;5.29;68.83;101304.25;4960440;28;19928;-70
2023/03/04 13:00:12;;;;;;;;;;;;;;;5.58;68.36;101300.25;4959338;28;20326;-71
2023/03/04 13:03:25;;;;;;;;;;;;;;;5.66;68.20;101300.13;4958748;28;19955;-72
2023/03/04 13:06:29;;;;;;;;;;;;;;;5.62;68.27;101294.13;4955972;28;19974;-71
2023/03/04 13:09:40;;;;;;;;;;;;;;;5.61;68.10;101292.41;4958981;28;19973;-70
2023/03/04 13:12:58;;;;;;;;;;;;;;;5.45;68.72;101297.03;4955739;28;19966;-71
2023/03/04 13:16:10;;;;;;;;;;;;;;;5.50;68.96;101302.16;4960607;28;19931;-70
2023/03/04 13:19:32;;;;;;;;;;;;;;;5.57;68.70;101295.97;4962571;28;20050;-69
2023/03/04 13:22:38;;;;;;;;;;;;;;;5.60;68.54;101288.97;4957828;28;20672;-69
2023/03/04 13:25:53;;;;;;;;;;;;;;;5.71;68.56;101283.59;4959169;28;19926;-69
2023/03/04 13:29:25;;;;;;;;;;;;;;;5.63;68.44;101279.41;4942027;28;19933;-69
2023/03/04 13:32:36;;;;;;;;;;;;;;;5.55;68.28;101272.66;4961048;28;19972;-70
2023/03/04 13:35:48;;;;;;;;;;;;;;;5.59;68.53;101276.03;4952495;28;19929;-70
2023/03/04 13:38:59;;;;;;;;;;;;;;;5.70;68.19;101274.06;4954773;28;19943;-70
2023/03/04 13:42:03;;;;;;;;;;;;;;;5.55;68.77;101274.38;4956590;28;20076;-74
2023/03/04 13:45:37;;;;;;;;;;;;;;;5.70;67.66;101278.41;4959700;28;19989;-71
2023/03/04 13:48:42;;;;;;;;;;;;;;;5.69;68.13;101267.19;4949157;29;19925;-70
2023/03/04 13:51:45;;;;;;;;;;;;;;;5.73;68.23;101271.41;4957354;28;20302;-69
2023/03/04 13:54:48;;;;;;;;;;;;;;;5.76;68.08;101268.75;4953510;28;20366;-70
2023/03/04 13:57:51;;;;;;;;;;;;;;;5.80;68.00;101270.38;4957760;28;20018;-70
2023/03/04 14:00:55;;;;;;;;;;;;;;;5.88;67.82;101272.84;4963881;28;20058;-69
2023/03/04 14:04:01;;;;;;;;;;;;;;;5.90;68.03;101270.22;4966419;28;19929;-70
2023/03/04 14:07:25;;;;;;;;;;;;;;;5.93;67.58;101267.56;4963730;28;20294;-70
2023/03/04 14:10:28;;;;;;;;;;;;;;;5.92;67.92;101256.31;4966513;28;19925;-71
2023/03/04 14:13:32;;;;;;;;;;;;;;;5.92;68.80;101260.66;4966627;28;19965;-75
2023/03/04 14:16:51;;;;;;;;;;;;;;;6.07;68.06;101247.38;4963723;28;19937;-71
2023/03/04 14:19:55;;;;;;;;;;;;;;;6.02;67.60;101249.22;4966590;28;19929;-71
2023/03/04 14:23:00;;;;;;;;;;;;;;;6.15;68.04;101239.41;4967292;28;20334;-72
2023/03/04 14:26:06;;;;;;;;;;;;;;;6.21;67.74;101244.47;4965297;28;19929;-69
2023/03/04 14:29:38;;;;;;;;;;;;;;;6.10;67.81;101233.50;4960055;28;20013;-70
2023/03/04 14:33:06;;;;;;;;;;;;;;;6.34;67.13;101234.66;4964236;28;19954;-74
2023/03/04 14:36:25;;;;;;;;;;;;;;;6.27;66.82;101227.00;4967050;28;20046;-73
2023/03/04 14:39:31;;;;;;;;;;;;;;;6.27;66.62;101224.41;4969174;28;19933;-73
2023/03/04 14:42:40;;;;;;;;;;;;;;;6.14;67.28;101217.78;4956967;28;19969;-72
2023/03/04 14:45:49;;;;;;;;;;;;;;;6.14;68.33;101215.19;4960534;28;19937;-71
2023/03/04 14:48:54;;;;;;;;;;;;;;;6.13;67.29;101202.25;4960331;28;19973;-71
2023/03/04 14:51:59;;;;;;;;;;;;;;;5.82;68.51;101208.94;4961253;28;19926;-72
2023/03/04 14:55:09;;;;;;;;;;;;;;;5.98;68.82;101211.25;4954912;28;20058;-71
2023/03/04 14:58:20;;;;;;;;;;;;;;;5.98;69.72;101211.25;4955285;29;19977;-71
2023/03/04 15:01:29;;;;;;;;;;;;;;;5.93;69.43;101197.50;4955187;29;20335;-71
2023/03/04 15:04:33;;;;;;;;;;;;;;;6.02;69.23;101199.88;4941940;28;19977;-71
2023/03/04 15:07:37;;;;;;;;;;;;;;;6.08;69.01;101206.69;4955231;29;19982;-71
2023/03/04 15:10:41;;;;;;;;;;;;;;;6.00;68.88;101193.91;4955344;29;19929;-70
2023/03/04 15:13:46;;;;;;;;;;;;;;;6.12;68.82;101193.59;4953054;28;19994;-70
2023/03/04 15:16:55;;;;;;;;;;;;;;;6.25;68.51;101196.75;4942829;28;19974;-74
2023/03/04 15:19:58;;;;;;;;;;;;;;;6.16;68.06;101194.38;4954696;29;20409;-70
2023/03/04 15:23:03;;;;;;;;;;;;;;;6.02;68.54;101198.13;4956578;28;19950;-70
2023/03/04 15:26:08;;;;;;;;;;;;;;;5.89;69.37;101201.03;4956995;29;20284;-70
2023/03/04 15:29:16;;;;;;;;;;;;;;;5.88;69.73;101184.59;4943283;29;19977;-71
2023/03/04 15:32:19;;;;;;;;;;;;;;;5.88;69.54;101188.94;4955146;28;19990;-72
2023/03/04 15:35:23;;;;;;;;;;;;;;;5.95;69.24;101190.53;4961114;28;19982;-71
2023/03/04 15:38:28;;;;;;;;;;;;;;;6.06;69.42;101188.53;4961832;28;19936;-72
2023/03/04 15:41:31;;;;;;;;;;;;;;;6.02;69.19;101187.75;4962766;28;19925;-72
2023/03/04 15:44:35;;;;;;;;;;;;;;;6.13;68.86;101187.53;4962506;28;20005;-71
2023/03/04 15:47:40;;;;;;;;;;;;;;;5.87;70.14;101182.03;4942963;29;19934;-72
2023/03/04 15:50:48;;;;;;;;;;;;;;;5.88;70.05;101181.16;4943683;29;19929;-71
2023/03/04 15:53:56;;;;;;;;;;;;;;;5.80;70.57;101178.72;4942842;29;19929;-71
2023/03/04 15:57:00;;;;;;;;;;;;;;;5.83;70.49;101178.66;4941622;29;19977;-71
2023/03/04 16:00:03;;;;;;;;;;;;;;;5.79;70.68;101172.69;4940646;29;20033;-70
2023/03/04 16:03:15;;;;;;;;;;;;;;;5.68;71.04;101173.78;4943092;29;19965;-68
2023/03/04 16:06:23;;;;;;;;;;;;;;;5.77;71.25;101177.03;4943400;29;19969;-71
2023/03/04 16:09:28;;;;;;;;;;;;;;;5.87;70.69;101177.72;4941689;29;19977;-70
2023/03/04 16:12:33;;;;;;;;;;;;;;;5.82;70.53;101179.53;4933504;29;20014;-68
2023/03/04 16:15:36;;;;;;;;;;;;;;;5.84;70.53;101177.78;4943479;29;19971;-68
2023/03/04 16:18:39;;;;;;;;;;;;;;;5.86;70.47;101180.31;4940447;29;20055;-69
2023/03/04 16:21:43;;;;;;;;;;;;;;;5.72;71.30;101178.03;4942173;29;19974;-68
2023/03/04 16:24:46;;;;;;;;;;;;;;;5.62;71.78;101182.56;4942789;29;19926;-73
2023/03/04 16:27:50;;;;;;;;;;;;;;;5.63;71.94;101179.09;4945465;29;19926;-69
2023/03/04 16:30:54;;;;;;;;;;;;;;;5.60;72.16;101172.22;4943968;29;19965;-69